Time;durP1;ratioP1;P1;durP2;ratioP2;P2;SDS_P1;SDS_P2;PMS_P1;PMS_P2;Temp;Humidity;BMP_temperature;BMP_pressure;BME280_temperature;BME280_humidity;BME280_pressure;Samples;Min_cycle;Max_cycle;Signal;HPM_P1;HPM_P2
2023/07/29 00:00:45;;;;;;;1.90;1.73;;;;;;;18.51;100.00;100044.50;4969038;28;20093;-86
2023/07/29 00:03:12;;;;;;;2.53;1.95;;;;;;;18.45;100.00;100042.16;4953023;28;20049;-84
2023/07/29 00:05:39;;;;;;;2.05;1.95;;;;;;;18.37;100.00;100038.16;4981296;28;20045;-83
2023/07/29 00:08:06;;;;;;;2.25;2.15;;;;;;;18.29;100.00;100038.56;4958694;28;20118;-84
2023/07/29 00:10:36;;;;;;;2.33;2.15;;;;;;;18.21;100.00;100035.44;4960829;28;20039;-86
2023/07/29 00:13:04;;;;;;;4.40;2.88;;;;;;;18.13;100.00;100044.66;4952383;28;20042;-84
2023/07/29 00:15:30;;;;;;;2.78;1.98;;;;;;;18.08;100.00;100041.38;4981708;28;20049;-85
2023/07/29 00:17:57;;;;;;;5.07;2.63;;;;;;;18.03;100.00;100046.06;4958890;28;20069;-84
2023/07/29 00:20:23;;;;;;;3.38;1.95;;;;;;;17.96;100.00;100048.13;4965381;28;20043;-90
2023/07/29 00:22:52;;;;;;;1.85;1.75;;;;;;;17.94;100.00;100049.13;4962625;28;20039;-82
2023/07/29 00:25:19;;;;;;;2.40;2.22;;;;;;;17.92;100.00;100053.63;4977772;28;20081;-92
2023/07/29 00:27:46;;;;;;;2.78;2.15;;;;;;;17.93;100.00;100058.88;4956879;28;20054;-87
2023/07/29 00:30:13;;;;;;;2.08;1.85;;;;;;;17.95;100.00;100048.19;4964656;28;20094;-84
2023/07/29 00:32:39;;;;;;;1.95;1.85;;;;;;;17.93;100.00;100050.94;4955401;28;20053;-83
2023/07/29 00:35:07;;;;;;;1.85;1.75;;;;;;;17.92;100.00;100040.38;4971344;28;20050;-89
2023/07/29 00:37:33;;;;;;;1.85;1.73;;;;;;;17.89;100.00;100041.41;4950283;28;20127;-88
2023/07/29 00:40:00;;;;;;;2.05;1.90;;;;;;;17.86;100.00;100049.50;4965208;28;20065;-84
2023/07/29 00:42:26;;;;;;;1.58;1.48;;;;;;;17.83;100.00;100050.50;4964764;28;20043;-82
2023/07/29 00:44:53;;;;;;;1.67;1.58;;;;;;;17.79;100.00;100046.28;4964529;28;20062;-84
2023/07/29 00:47:21;;;;;;;2.28;1.63;;;;;;;17.80;100.00;100033.91;4962290;28;20056;-93
2023/07/29 00:49:47;;;;;;;1.98;1.88;;;;;;;17.80;100.00;100036.56;4962885;28;20508;-84
2023/07/29 00:52:14;;;;;;;1.80;1.70;;;;;;;17.80;100.00;100032.09;4976673;28;20045;-84
2023/07/29 00:54:41;;;;;;;2.08;1.98;;;;;;;17.80;100.00;100039.22;4965918;28;20035;-84
2023/07/29 00:57:09;;;;;;;1.48;1.40;;;;;;;17.76;100.00;100037.66;4962361;28;20046;-84
2023/07/29 00:59:37;;;;;;;1.23;1.17;;;;;;;17.73;100.00;100036.00;4982683;28;20042;-92
2023/07/29 01:02:04;;;;;;;1.85;1.75;;;;;;;17.70;100.00;100041.44;4960607;28;20054;-88
2023/07/29 01:04:30;;;;;;;1.27;1.10;;;;;;;17.66;100.00;100053.09;4978314;28;20038;-95
2023/07/29 01:07:15;;;;;;;1.50;1.40;;;;;;;17.63;100.00;100053.25;4982969;28;20042;-94
2023/07/29 01:09:57;;;;;;;1.35;1.35;;;;;;;17.59;100.00;100041.97;4974362;28;20035;-83
2023/07/29 01:12:45;;;;;;;1.92;1.83;;;;;;;17.56;100.00;100031.53;4967395;28;20043;-86
2023/07/29 01:15:17;;;;;;;1.60;1.50;;;;;;;17.55;100.00;100032.44;4968776;28;20074;-92
2023/07/29 01:17:49;;;;;;;1.45;1.35;;;;;;;17.55;100.00;100035.09;4981673;28;20042;-89
2023/07/29 01:20:20;;;;;;;1.83;1.73;;;;;;;17.57;100.00;100027.94;4972851;28;20057;-88
2023/07/29 01:22:47;;;;;;;1.30;1.27;;;;;;;17.57;100.00;100020.00;4987077;28;20098;-89
2023/07/29 01:25:14;;;;;;;1.55;1.45;;;;;;;17.56;100.00;100009.47;4968374;28;20039;-84
2023/07/29 01:27:45;;;;;;;1.77;1.13;;;;;;;17.53;100.00;100016.66;4971276;28;20043;-84
2023/07/29 01:30:12;;;;;;;3.30;1.60;;;;;;;17.53;100.00;100016.66;4968741;28;20094;-86
2023/07/29 01:32:55;;;;;;;1.60;1.60;;;;;;;17.50;100.00;100019.44;4959317;28;20499;-86
2023/07/29 01:35:29;;;;;;;2.27;2.17;;;;;;;17.48;100.00;100020.44;4954118;28;20095;-86
2023/07/29 01:38:08;;;;;;;1.77;1.67;;;;;;;17.46;100.00;100028.44;4943216;28;20058;-84
2023/07/29 01:40:34;;;;;;;1.45;1.35;;;;;;;17.47;100.00;100024.88;4934628;28;20143;-84
2023/07/29 01:43:02;;;;;;;1.80;1.70;;;;;;;17.55;100.00;100028.94;4955499;28;20054;-85
2023/07/29 01:45:31;;;;;;;3.92;1.55;;;;;;;17.66;100.00;100024.88;4958555;28;20039;-82
2023/07/29 01:47:58;;;;;;;1.50;1.35;;;;;;;17.75;100.00;100025.34;4959387;28;20078;-82
2023/07/29 01:50:25;;;;;;;1.83;1.73;;;;;;;17.80;100.00;100021.53;4948218;28;20222;-85
2023/07/29 01:52:52;;;;;;;2.55;1.70;;;;;;;17.88;100.00;100021.13;4958442;28;20043;-90
2023/07/29 01:55:18;;;;;;;1.38;1.08;;;;;;;17.94;100.00;100027.94;4965458;28;20105;-85
2023/07/29 01:57:45;;;;;;;1.98;1.60;;;;;;;17.99;100.00;100020.63;4952101;28;20560;-91
2023/07/29 02:00:12;;;;;;;1.00;1.00;;;;;;;18.04;100.00;100015.13;4956578;28;20047;-84
2023/07/29 02:02:39;;;;;;;1.20;1.20;;;;;;;18.08;100.00;100009.59;4940233;28;20598;-83
2023/07/29 02:05:06;;;;;;;2.65;1.25;;;;;;;18.12;100.00;100011.16;4938244;28;20078;-93
2023/07/29 02:07:32;;;;;;;1.90;1.50;;;;;;;18.14;100.00;99997.84;4959602;28;20053;-83
2023/07/29 02:09:59;;;;;;;1.10;1.10;;;;;;;18.18;100.00;99999.38;4964188;28;20097;-83
2023/07/29 02:12:26;;;;;;;1.52;1.17;;;;;;;18.23;100.00;100004.47;4978167;28;20051;-84
2023/07/29 02:14:52;;;;;;;5.35;2.10;;;;;;;18.27;100.00;100006.00;4955504;28;20118;-87
2023/07/29 02:17:19;;;;;;;1.10;1.00;;;;;;;18.28;100.00;100008.56;4960573;28;20039;-87
2023/07/29 02:19:46;;;;;;;1.27;1.27;;;;;;;18.31;100.00;100004.91;4953109;28;20035;-82
2023/07/29 02:22:15;;;;;;;1.83;0.90;;;;;;;18.30;100.00;100003.19;4955682;28;20035;-83
2023/07/29 02:24:42;;;;;;;2.42;1.40;;;;;;;18.30;100.00;99992.59;4951966;28;20051;-88
2023/07/29 02:27:08;;;;;;;1.27;0.80;;;;;;;18.30;100.00;99990.81;4945579;28;20043;-83
2023/07/29 02:29:35;;;;;;;1.50;1.40;;;;;;;18.27;100.00;99990.97;4955488;28;20043;-84
2023/07/29 02:32:01;;;;;;;2.22;1.08;;;;;;;18.25;100.00;99984.03;4972404;28;20042;-83
2023/07/29 02:34:28;;;;;;;1.63;1.52;;;;;;;18.26;100.00;99988.41;4954381;28;20066;-83
2023/07/29 02:36:54;;;;;;;1.10;1.10;;;;;;;18.27;100.00;99992.75;4959152;28;20089;-84
2023/07/29 02:39:21;;;;;;;1.30;1.23;;;;;;;18.24;100.00;99980.53;4954352;28;20074;-83
2023/07/29 02:41:48;;;;;;;1.80;1.40;;;;;;;18.23;100.00;99984.09;4964513;28;20053;-83
2023/07/29 02:44:15;;;;;;;0.82;0.82;;;;;;;18.23;100.00;99985.91;4972934;28;20058;-84
2023/07/29 02:46:41;;;;;;;1.33;1.33;;;;;;;18.23;100.00;99984.09;4957101;28;20045;-84
2023/07/29 02:49:08;;;;;;;0.95;0.82;;;;;;;18.23;100.00;99992.06;4942248;28;20047;-85
2023/07/29 02:51:35;;;;;;;1.00;1.00;;;;;;;18.22;100.00;99986.84;4978988;28;20045;-82
2023/07/29 02:54:01;;;;;;;0.82;0.82;;;;;;;18.24;100.00;99995.53;4956778;28;20054;-84
2023/07/29 02:56:28;;;;;;;1.05;0.93;;;;;;;18.27;100.00;99987.47;4975370;28;20043;-84
2023/07/29 02:58:54;;;;;;;0.80;0.80;;;;;;;18.28;100.00;99982.06;4958841;28;20043;-84
2023/07/29 03:01:21;;;;;;;1.65;1.55;;;;;;;18.27;100.00;99995.41;4964955;28;20046;-83
2023/07/29 03:03:48;;;;;;;2.15;1.10;;;;;;;18.26;100.00;99994.53;4961723;28;20054;-88
2023/07/29 03:06:15;;;;;;;1.60;1.52;;;;;;;18.29;100.00;99993.53;4966774;28;20050;-83
2023/07/29 03:08:42;;;;;;;1.17;1.17;;;;;;;18.25;100.00;99997.28;4959032;28;20042;-85
2023/07/29 03:11:12;;;;;;;1.10;1.10;;;;;;;18.25;100.00;99994.63;4947474;28;20118;-83
2023/07/29 03:13:39;;;;;;;1.00;1.00;;;;;;;18.23;100.00;99986.75;4943410;28;20102;-83
2023/07/29 03:16:17;;;;;;;0.88;0.77;;;;;;;18.25;100.00;99989.31;4979990;28;20054;-95
2023/07/29 03:18:45;;;;;;;2.25;0.75;;;;;;;18.26;100.00;99991.03;4953873;28;20042;-88
2023/07/29 03:21:12;;;;;;;1.10;1.02;;;;;;;18.28;100.00;99983.88;4965706;28;20050;-84
2023/07/29 03:23:39;;;;;;;0.93;0.93;;;;;;;18.27;100.00;99982.16;4972849;28;20042;-85
2023/07/29 03:26:09;;;;;;;0.90;0.90;;;;;;;18.27;100.00;99971.56;4973380;28;20047;-86
2023/07/29 03:28:43;;;;;;;1.90;0.90;;;;;;;18.28;100.00;99968.84;4972935;28;20147;-90
2023/07/29 03:31:11;;;;;;;0.93;0.93;;;;;;;18.30;100.00;99982.00;4945399;28;20062;-91
2023/07/29 03:33:38;;;;;;;0.80;0.80;;;;;;;18.32;100.00;99982.78;4964123;28;20109;-88
2023/07/29 03:36:05;;;;;;;1.17;1.17;;;;;;;18.33;100.00;99968.59;4969026;28;20051;-85
2023/07/29 03:38:32;;;;;;;1.00;0.85;;;;;;;18.33;100.00;99960.66;4980852;28;20035;-87
2023/07/29 03:40:59;;;;;;;0.88;0.85;;;;;;;18.34;100.00;99973.81;4970152;28;20102;-83
2023/07/29 03:43:25;;;;;;;0.95;0.95;;;;;;;18.34;100.00;99972.94;4982119;28;20057;-84
2023/07/29 03:45:52;;;;;;;0.80;0.80;;;;;;;18.35;100.00;99980.84;4983736;28;20041;-88
2023/07/29 03:48:18;;;;;;;0.85;0.80;;;;;;;18.37;100.00;99967.50;4976746;28;20043;-96
2023/07/29 03:50:45;;;;;;;1.77;1.02;;;;;;;18.39;100.00;99960.31;4976510;28;20047;-90
2023/07/29 03:53:11;;;;;;;2.45;1.15;;;;;;;18.41;100.00;99963.75;4994392;28;20054;-87
2023/07/29 03:55:38;;;;;;;1.30;1.17;;;;;;;18.42;100.00;99962.81;4975851;28;20027;-91
2023/07/29 03:58:04;;;;;;;1.25;1.10;;;;;;;18.44;100.00;99968.88;4978613;28;20094;-88
2023/07/29 04:00:31;;;;;;;1.83;1.38;;;;;;;18.45;100.00;99969.75;4978823;28;20042;-85
2023/07/29 04:02:57;;;;;;;0.93;0.90;;;;;;;18.48;100.00;99959.81;4980584;28;20042;-83
2023/07/29 04:05:24;;;;;;;0.88;0.88;;;;;;;18.48;100.00;99954.53;4968139;28;20047;-85
2023/07/29 04:07:50;;;;;;;4.00;1.52;;;;;;;18.48;100.00;99956.31;4954384;28;20046;-84
2023/07/29 04:10:19;;;;;;;2.08;0.82;;;;;;;18.43;100.00;99955.72;4959298;28;20039;-90
2023/07/29 04:12:45;;;;;;;1.08;0.98;;;;;;;18.43;100.00;99961.84;4973365;28;20046;-92
2023/07/29 04:15:12;;;;;;;1.27;1.17;;;;;;;18.44;100.00;99952.13;4959857;28;20049;-86
2023/07/29 04:17:38;;;;;;;0.98;0.98;;;;;;;18.43;100.00;99955.72;4968832;28;20030;-92
2023/07/29 04:20:06;;;;;;;1.00;0.70;;;;;;;18.38;100.00;99953.28;4961095;29;20063;-84
2023/07/29 04:22:32;;;;;;;0.70;0.70;;;;;;;18.32;100.00;99948.34;4980513;28;20039;-83
2023/07/29 04:24:59;;;;;;;1.27;1.27;;;;;;;18.29;100.00;99952.00;4957344;28;20078;-84
2023/07/29 04:27:26;;;;;;;1.48;1.30;;;;;;;18.24;100.00;99937.25;4958587;28;20058;-84
2023/07/29 04:29:52;;;;;;;0.85;0.85;;;;;;;18.21;100.00;99940.09;4962156;28;20086;-89
2023/07/29 04:32:19;;;;;;;0.73;0.73;;;;;;;18.18;100.00;99930.50;4979230;28;20019;-95
2023/07/29 04:34:45;;;;;;;1.27;1.27;;;;;;;18.17;100.00;99931.44;4974154;28;20049;-88
2023/07/29 04:37:12;;;;;;;2.28;0.90;;;;;;;18.15;100.00;99936.81;4956841;28;20054;-87
2023/07/29 04:39:39;;;;;;;1.75;1.40;;;;;;;18.16;100.00;99933.25;4957375;28;20039;-87
2023/07/29 04:42:06;;;;;;;0.93;0.93;;;;;;;18.16;100.00;99940.31;4987125;28;20141;-94
2023/07/29 04:44:32;;;;;;;1.52;1.30;;;;;;;18.18;100.00;99954.34;4971503;28;20030;-87
2023/07/29 04:46:59;;;;;;;1.20;1.10;;;;;;;18.17;100.00;99948.22;4975273;28;20053;-89
2023/07/29 04:49:25;;;;;;;1.80;1.23;;;;;;;18.18;100.00;99946.41;4956112;28;20047;-84
2023/07/29 04:51:52;;;;;;;1.65;0.82;;;;;;;18.18;100.00;99935.81;4981224;28;20035;-91
2023/07/29 04:54:20;;;;;;;1.52;1.42;;;;;;;18.18;100.00;99954.34;4973860;28;20035;-92
2023/07/29 04:56:47;;;;;;;1.92;1.27;;;;;;;18.18;100.00;99971.09;4972102;28;20050;-83
2023/07/29 04:59:13;;;;;;;1.40;1.30;;;;;;;18.16;100.00;99974.75;4945108;28;20405;-85
2023/07/29 05:01:42;;;;;;;0.98;0.98;;;;;;;18.15;100.00;99973.06;4969890;28;20093;-87
2023/07/29 05:04:08;;;;;;;3.30;1.23;;;;;;;18.15;100.00;99963.31;4965888;28;20047;-88
2023/07/29 05:06:35;;;;;;;1.20;1.10;;;;;;;18.14;100.00;99947.50;4966887;28;20042;-83
2023/07/29 05:09:18;;;;;;;0.82;0.80;;;;;;;18.13;100.00;99946.66;4968686;28;20057;-83
2023/07/29 05:11:45;;;;;;;1.17;1.13;;;;;;;18.08;100.00;99932.78;4952011;28;20590;-84
2023/07/29 05:14:17;;;;;;;1.73;1.63;;;;;;;18.01;100.00;99921.63;4943222;28;20050;-83
2023/07/29 05:16:44;;;;;;;1.58;1.17;;;;;;;17.98;100.00;99920.97;4948005;28;20437;-83
2023/07/29 05:19:13;;;;;;;1.27;1.23;;;;;;;17.95;100.00;99923.75;4955741;28;20497;-84
2023/07/29 05:21:40;;;;;;;2.88;1.48;;;;;;;17.96;100.00;99928.97;4964071;28;20554;-86
2023/07/29 05:24:07;;;;;;;1.73;1.45;;;;;;;17.96;100.00;99934.25;4948704;28;20062;-83
2023/07/29 05:26:33;;;;;;;1.58;1.55;;;;;;;18.00;100.00;99941.13;4955710;28;20069;-85
2023/07/29 05:29:00;;;;;;;1.17;1.10;;;;;;;18.05;100.00;99926.78;4961042;28;20047;-90
2023/07/29 05:31:27;;;;;;;1.10;1.10;;;;;;;18.14;100.00;99927.16;4991470;28;20475;-84
2023/07/29 05:33:53;;;;;;;1.10;1.10;;;;;;;18.25;100.00;99913.38;4958064;28;20061;-94
2023/07/29 05:36:23;;;;;;;1.58;1.10;;;;;;;18.34;100.00;99909.34;4956082;28;20538;-82
2023/07/29 05:38:49;;;;;;;1.10;1.10;;;;;;;18.44;100.00;99905.28;4942504;28;20050;-82
2023/07/29 05:41:16;;;;;;;1.95;1.23;;;;;;;18.55;100.00;99912.66;4970368;28;20050;-89
2023/07/29 05:43:43;;;;;;;1.58;0.90;;;;;;;18.67;100.00;99912.00;4969792;28;20489;-83
2023/07/29 05:46:10;;;;;;;1.42;1.33;;;;;;;18.75;100.00;99918.69;4969515;28;20030;-94
2023/07/29 05:48:37;;;;;;;1.30;1.30;;;;;;;18.77;100.00;99922.09;4955687;28;20074;-86
2023/07/29 05:51:05;;;;;;;1.35;1.00;;;;;;;18.84;100.00;99918.16;4988639;28;20129;-83
2023/07/29 05:53:31;;;;;;;1.20;1.05;;;;;;;18.85;100.00;99930.47;4950606;28;20469;-85
2023/07/29 05:55:58;;;;;;;1.50;1.27;;;;;;;18.87;100.00;99928.59;4964550;28;20094;-83
2023/07/29 05:58:27;;;;;;;1.13;1.13;;;;;;;18.84;100.00;99921.66;4972351;28;20061;-86
2023/07/29 06:00:53;;;;;;;2.05;1.17;;;;;;;18.77;100.00;99916.78;4956080;28;20125;-86
2023/07/29 06:03:20;;;;;;;1.60;1.50;;;;;;;18.74;100.00;99930.22;4957273;28;20042;-85
2023/07/29 06:05:46;;;;;;;1.45;1.10;;;;;;;18.73;100.00;99925.84;4962494;28;20126;-84
2023/07/29 06:08:13;;;;;;;1.17;1.17;;;;;;;18.71;100.00;99940.97;4956976;28;20050;-84
2023/07/29 06:10:39;;;;;;;1.27;1.27;;;;;;;18.64;100.00;99941.31;4963820;28;20051;-82
2023/07/29 06:13:09;;;;;;;0.93;0.85;;;;;;;18.55;100.00;99931.22;4957903;28;20051;-84
2023/07/29 06:15:36;;;;;;;1.38;1.27;;;;;;;18.51;100.00;99925.22;4962877;28;20062;-84
2023/07/29 06:18:03;;;;;;;0.90;0.90;;;;;;;18.50;100.00;99917.34;4975918;28;20038;-85
2023/07/29 06:20:29;;;;;;;1.67;1.42;;;;;;;18.49;100.00;99923.59;4961287;28;20049;-83
2023/07/29 06:22:56;;;;;;;1.00;1.00;;;;;;;18.45;100.00;99912.28;4964290;28;20039;-85
2023/07/29 06:25:22;;;;;;;1.58;1.48;;;;;;;18.49;100.00;99920.94;4955815;28;20057;-84
2023/07/29 06:27:49;;;;;;;1.13;1.02;;;;;;;18.49;100.00;99913.00;4960893;28;20039;-86
2023/07/29 06:30:15;;;;;;;1.48;1.38;;;;;;;18.55;100.00;99915.31;4963761;28;20034;-83
2023/07/29 06:32:45;;;;;;;1.27;1.20;;;;;;;18.62;100.00;99921.97;4950722;28;20074;-90
2023/07/29 06:35:11;;;;;;;2.08;1.80;;;;;;;18.70;100.00;99926.03;4948939;28;20093;-85
2023/07/29 06:37:38;;;;;;;1.33;1.00;;;;;;;18.83;100.00;99927.06;4958423;28;20157;-84
2023/07/29 06:40:05;;;;;;;1.33;1.20;;;;;;;18.99;100.00;99943.00;4991359;28;20142;-84
2023/07/29 06:42:32;;;;;;;0.70;0.70;;;;;;;19.20;100.00;99946.25;4956307;28;20115;-83
2023/07/29 06:44:58;;;;;;;1.20;1.20;;;;;;;19.34;100.00;99942.81;4981541;28;20090;-86
2023/07/29 06:47:25;;;;;;;1.42;1.35;;;;;;;19.56;100.00;99938.94;4962704;28;20062;-83
2023/07/29 06:49:51;;;;;;;1.08;1.08;;;;;;;19.75;100.00;99936.06;4957525;28;20695;-85
2023/07/29 06:52:18;;;;;;;1.58;1.20;;;;;;;20.02;100.00;99940.72;4968987;28;20051;-83
2023/07/29 06:54:44;;;;;;;1.23;1.23;;;;;;;20.20;100.00;99942.25;4965937;28;20043;-88
2023/07/29 06:57:11;;;;;;;0.80;0.80;;;;;;;20.33;100.00;99940.56;4949558;28;20051;-90
2023/07/29 06:59:38;;;;;;;4.45;1.27;;;;;;;20.42;100.00;99938.31;4968602;28;20030;-83
2023/07/29 07:02:05;;;;;;;0.82;0.82;;;;;;;20.38;100.00;99936.78;4985492;28;20043;-87
2023/07/29 07:04:31;;;;;;;1.27;1.17;;;;;;;20.34;100.00;99949.41;4962081;28;20122;-85
2023/07/29 07:06:58;;;;;;;3.53;1.15;;;;;;;20.39;100.00;99947.31;4979467;28;20043;-83
2023/07/29 07:09:24;;;;;;;1.10;0.88;;;;;;;20.42;100.00;99948.94;4963977;28;20075;-88
2023/07/29 07:11:51;;;;;;;0.38;0.38;;;;;;;20.41;100.00;99948.06;4949736;28;20110;-83
2023/07/29 07:14:17;;;;;;;2.60;1.40;;;;;;;20.41;100.00;99950.72;4951087;28;20022;-90
2023/07/29 07:16:44;;;;;;;1.02;1.02;;;;;;;20.45;100.00;99954.91;4969617;28;20133;-85
2023/07/29 07:19:10;;;;;;;1.20;0.85;;;;;;;20.42;100.00;99949.78;4967488;28;20131;-87
2023/07/29 07:21:37;;;;;;;3.50;1.58;;;;;;;20.41;100.00;99947.22;4957956;28;20070;-83
2023/07/29 07:24:03;;;;;;;1.48;1.48;;;;;;;20.41;100.00;99936.59;4965743;28;20035;-84
2023/07/29 07:26:30;;;;;;;1.30;1.30;;;;;;;20.41;100.00;99933.94;4966599;28;20039;-88
2023/07/29 07:28:56;;;;;;;0.95;0.93;;;;;;;20.47;100.00;99937.06;4967778;28;20502;-82
2023/07/29 07:31:23;;;;;;;1.30;1.30;;;;;;;20.54;100.00;99949.97;4954512;28;20039;-86
2023/07/29 07:33:50;;;;;;;1.02;1.00;;;;;;;20.59;100.00;99942.56;4953671;28;20043;-87
2023/07/29 07:36:16;;;;;;;1.15;1.15;;;;;;;20.57;100.00;99947.13;4965372;28;20086;-90
2023/07/29 07:38:43;;;;;;;1.35;1.00;;;;;;;20.56;100.00;99945.41;4967708;28;20047;-91
2023/07/29 07:41:09;;;;;;;2.33;1.60;;;;;;;20.51;100.00;99929.75;4969716;28;20058;-86
2023/07/29 07:43:36;;;;;;;1.92;1.05;;;;;;;20.59;100.00;99927.47;4966945;29;20071;-87
2023/07/29 07:46:03;;;;;;;2.83;1.08;;;;;;;20.75;100.00;99926.53;4972529;28;20251;-87
2023/07/29 07:48:29;;;;;;;1.08;0.98;;;;;;;21.01;100.00;99927.53;4951527;29;20110;-87
2023/07/29 07:50:57;;;;;;;2.25;0.90;;;;;;;21.23;100.00;99927.00;4959719;29;20063;-84
2023/07/29 07:53:25;;;;;;;2.58;0.93;;;;;;;21.40;100.00;99912.56;4953134;28;20056;-86
2023/07/29 07:55:52;;;;;;;1.10;1.00;;;;;;;21.53;100.00;99909.13;4963578;29;20047;-86
2023/07/29 07:58:18;;;;;;;2.80;1.17;;;;;;;21.57;100.00;99911.47;4951503;28;20051;-82
2023/07/29 08:00:45;;;;;;;0.98;0.98;;;;;;;21.60;100.00;99918.41;4949866;28;20078;-92
2023/07/29 08:03:11;;;;;;;1.20;1.00;;;;;;;21.66;100.00;99925.16;4969808;28;20562;-83
2023/07/29 08:05:38;;;;;;;3.53;1.30;;;;;;;21.75;100.00;99925.38;4951369;28;20454;-83
2023/07/29 08:08:04;;;;;;;1.67;1.48;;;;;;;21.73;100.00;99923.78;4951753;29;20043;-84
2023/07/29 08:10:31;;;;;;;1.63;1.52;;;;;;;21.62;100.00;99921.84;4956594;28;20041;-82
2023/07/29 08:12:57;;;;;;;5.57;1.20;;;;;;;21.52;100.00;99934.03;4952765;28;20039;-83
2023/07/29 08:15:24;;;;;;;2.28;1.67;;;;;;;21.53;100.00;99931.25;4958959;28;20046;-85
2023/07/29 08:17:50;;;;;;;4.47;1.85;;;;;;;21.49;100.00;99930.59;4954205;28;20098;-85
2023/07/29 08:20:17;;;;;;;2.88;1.48;;;;;;;21.58;100.00;99920.34;4956662;28;20046;-84
2023/07/29 08:22:43;;;;;;;2.45;1.60;;;;;;;21.44;100.00;99918.56;4953534;28;20487;-88
2023/07/29 08:25:10;;;;;;;2.97;1.52;;;;;;;21.42;100.00;99917.78;4943603;28;20101;-87
2023/07/29 08:27:36;;;;;;;2.10;2.00;;;;;;;21.41;100.00;99924.94;4940297;28;20046;-85
2023/07/29 08:30:03;;;;;;;4.15;2.72;;;;;;;21.37;100.00;99926.09;4969116;28;20077;-86
2023/07/29 08:32:30;;;;;;;2.38;2.17;;;;;;;21.38;100.00;99934.94;4957119;28;20117;-84
2023/07/29 08:34:56;;;;;;;4.55;2.53;;;;;;;21.23;100.00;99934.13;4959876;28;20039;-82
2023/07/29 08:37:23;;;;;;;3.65;2.95;;;;;;;21.04;100.00;99943.31;4939929;28;20183;-82
2023/07/29 08:39:49;;;;;;;6.22;2.67;;;;;;;20.94;100.00;99948.34;4959803;28;20047;-86
2023/07/29 08:42:20;;;;;;;3.15;2.85;;;;;;;20.88;100.00;99929.28;4959533;28;20047;-86
2023/07/29 08:44:49;;;;;;;2.20;2.00;;;;;;;20.97;100.00;99915.38;4940490;28;20043;-89
2023/07/29 08:47:16;;;;;;;2.92;2.65;;;;;;;21.08;100.00;99926.19;4935817;28;20043;-90
2023/07/29 08:49:47;;;;;;;2.05;1.73;;;;;;;21.27;100.00;99928.50;4964053;28;20498;-83
2023/07/29 08:52:15;;;;;;;2.05;1.95;;;;;;;21.45;100.00;99933.59;4943833;28;20046;-88
2023/07/29 08:54:42;;;;;;;2.83;2.03;;;;;;;21.59;100.00;99933.56;4960000;28;20055;-84
2023/07/29 08:57:09;;;;;;;2.47;2.28;;;;;;;21.67;100.00;99922.38;4922790;29;20051;-83
2023/07/29 08:59:36;;;;;;;2.00;1.88;;;;;;;21.75;100.00;99919.22;4953787;28;20055;-84
2023/07/29 09:02:03;;;;;;;2.60;2.08;;;;;;;21.80;100.00;99927.75;4939763;28;20053;-84
2023/07/29 09:04:29;;;;;;;2.28;2.17;;;;;;;21.81;100.00;99938.28;4963280;28;20126;-84
2023/07/29 09:06:57;;;;;;;2.25;2.08;;;;;;;21.68;100.00;99932.09;4960417;28;20043;-84
2023/07/29 09:09:24;;;;;;;2.35;2.20;;;;;;;21.72;100.00;99922.94;4955096;28;20051;-83
2023/07/29 09:11:51;;;;;;;1.85;1.77;;;;;;;21.86;99.53;99921.97;4958737;28;20094;-82
2023/07/29 09:14:18;;;;;;;2.33;2.05;;;;;;;22.23;96.52;99922.13;4956575;28;20065;-84
2023/07/29 09:16:45;;;;;;;2.60;2.40;;;;;;;22.96;92.59;99922.38;4952964;28;20042;-85
2023/07/29 09:19:11;;;;;;;2.10;2.00;;;;;;;23.72;90.54;99908.81;4925524;29;20083;-83
2023/07/29 09:21:40;;;;;;;2.10;2.00;;;;;;;24.27;85.68;99909.06;4964019;28;20043;-86
2023/07/29 09:24:08;;;;;;;2.22;2.05;;;;;;;24.63;82.46;99911.59;4949155;28;20044;-83
2023/07/29 09:26:36;;;;;;;3.05;2.33;;;;;;;24.48;83.59;99905.66;4945345;29;20412;-83
2023/07/29 09:29:02;;;;;;;2.53;2.33;;;;;;;24.44;83.80;99905.06;4950634;29;20399;-84
2023/07/29 09:31:30;;;;;;;2.97;2.78;;;;;;;23.99;87.84;99910.34;4949326;29;20035;-85
2023/07/29 09:34:02;;;;;;;2.70;2.60;;;;;;;23.84;88.20;99913.19;4961685;28;20043;-87
2023/07/29 09:36:35;;;;;;;3.90;3.70;;;;;;;23.58;89.17;99904.50;4952708;28;20059;-87
2023/07/29 09:39:07;;;;;;;3.30;3.00;;;;;;;23.34;89.80;99909.88;4949359;28;20079;-83
2023/07/29 09:41:36;;;;;;;3.55;3.28;;;;;;;23.06;91.40;99904.72;4945662;28;20042;-83
2023/07/29 09:44:05;;;;;;;4.10;3.80;;;;;;;22.81;91.26;99908.31;4951336;29;20043;-83
2023/07/29 09:46:38;;;;;;;5.15;4.78;;;;;;;22.10;95.80;99899.97;4949055;28;20430;-82
2023/07/29 09:49:09;;;;;;;5.93;5.43;;;;;;;21.49;100.00;99909.28;4953839;28;20046;-91
2023/07/29 09:51:40;;;;;;;5.97;5.47;;;;;;;21.40;100.00;99917.06;4951878;29;20039;-85
2023/07/29 09:54:10;;;;;;;5.75;5.32;;;;;;;21.48;99.47;99901.41;4952576;28;20112;-90
2023/07/29 09:56:45;;;;;;;5.95;5.35;;;;;;;21.96;95.68;99915.06;4952574;28;20035;-87
2023/07/29 09:59:12;;;;;;;8.65;5.38;;;;;;;22.60;91.92;99911.56;4960682;28;20043;-83
2023/07/29 10:01:39;;;;;;;6.32;5.63;;;;;;;23.59;88.14;99906.22;4962441;28;20037;-83
2023/07/29 10:04:09;;;;;;;5.70;5.30;;;;;;;24.58;84.76;99907.47;4941474;28;20629;-89
2023/07/29 10:06:38;;;;;;;5.25;4.68;;;;;;;25.37;81.85;99911.03;4933593;29;20044;-86
2023/07/29 10:09:08;;;;;;;5.03;4.63;;;;;;;26.04;79.86;99901.81;4953721;29;20039;-84
2023/07/29 10:11:38;;;;;;;6.57;5.30;;;;;;;26.62;76.81;99897.72;4959435;29;20054;-83
2023/07/29 10:14:05;;;;;;;7.15;5.25;;;;;;;27.20;74.45;99894.31;4942266;29;20498;-85
2023/07/29 10:16:37;;;;;;;5.47;4.97;;;;;;;26.73;73.23;99892.25;4972680;28;20458;-83
2023/07/29 10:19:05;;;;;;;4.32;3.92;;;;;;;26.12;72.48;99887.75;4958767;28;20058;-82
2023/07/29 10:21:33;;;;;;;4.85;4.47;;;;;;;25.39;74.85;99891.16;4945765;29;20043;-83
2023/07/29 10:24:07;;;;;;;3.92;3.65;;;;;;;25.13;74.76;99887.09;4950468;28;20065;-85
2023/07/29 10:26:40;;;;;;;3.65;3.45;;;;;;;25.22;74.06;99889.03;4965906;28;20514;-84
2023/07/29 10:29:08;;;;;;;3.75;3.55;;;;;;;25.97;73.32;99894.41;4971740;28;20346;-84
2023/07/29 10:31:36;;;;;;;4.10;3.55;;;;;;;27.51;65.70;99885.31;4961565;28;20118;-83
2023/07/29 10:34:03;;;;;;;3.15;2.92;;;;;;;27.59;63.08;99888.13;4956551;28;20070;-83
2023/07/29 10:36:30;;;;;;;2.67;2.58;;;;;;;27.15;62.33;99885.81;4970844;28;20070;-82
2023/07/29 10:38:57;;;;;;;3.13;2.97;;;;;;;27.23;62.69;99894.06;4950184;28;20043;-82
2023/07/29 10:41:23;;;;;;;3.60;2.58;;;;;;;28.44;57.79;99872.06;4961659;28;20047;-84
2023/07/29 10:43:53;;;;;;;2.42;2.33;;;;;;;29.31;53.52;99886.06;4959887;28;20070;-83
2023/07/29 10:46:24;;;;;;;2.30;2.13;;;;;;;30.13;50.41;99874.19;4969395;28;20054;-86
2023/07/29 10:48:50;;;;;;;2.25;2.15;;;;;;;31.15;46.50;99868.88;4947529;28;20417;-83
2023/07/29 10:51:29;;;;;;;1.85;1.73;;;;;;;31.49;44.04;99873.28;4958738;28;20480;-84
2023/07/29 10:54:14;;;;;;;1.58;1.50;;;;;;;32.84;41.33;99871.81;4969909;28;20077;-82
2023/07/29 10:56:50;;;;;;;1.73;1.50;;;;;;;32.56;39.90;99883.09;4969719;28;20047;-84
2023/07/29 10:59:17;;;;;;;2.17;1.52;;;;;;;32.65;40.17;99882.03;4963232;28;20102;-83
2023/07/29 11:01:53;;;;;;;1.08;0.95;;;;;;;31.74;40.51;99892.25;4948085;28;20438;-83
2023/07/29 11:04:23;;;;;;;1.25;1.25;;;;;;;29.39;45.95;99896.06;4959679;29;20083;-82
2023/07/29 11:07:06;;;;;;;1.45;1.13;;;;;;;28.31;49.04;99893.09;4962449;28;20054;-84
2023/07/29 11:09:57;;;;;;;2.13;1.50;;;;;;;27.34;51.70;99890.38;4964939;28;20487;-83
2023/07/29 11:12:54;;;;;;;;;;;;;;;26.72;53.69;99890.56;4943809;28;20042;-85
2023/07/29 11:15:27;;;;;;;1.50;1.40;;;;;;;26.28;55.55;99892.63;4954911;29;20390;-83
2023/07/29 11:17:56;;;;;;;1.52;1.52;;;;;;;25.96;56.36;99892.69;4940587;29;20049;-83
2023/07/29 11:20:32;;;;;;;1.63;1.52;;;;;;;25.37;57.16;99893.13;4939942;29;20085;-82
2023/07/29 11:23:03;;;;;;;1.25;1.15;;;;;;;25.13;58.06;99895.13;4950678;28;20047;-84
2023/07/29 11:25:35;;;;;;;1.30;1.30;;;;;;;26.03;55.48;99889.34;4956361;28;20118;-84
2023/07/29 11:28:04;;;;;;;2.22;1.30;;;;;;;26.08;54.44;99894.34;4947128;28;20043;-82